Time;durP1;ratioP1;P1;durP2;ratioP2;P2;SDS_P1;SDS_P2;PMS_P1;PMS_P2;Temp;Humidity;BMP_temperature;BMP_pressure;BME280_temperature;BME280_humidity;BME280_pressure;Samples;Min_cycle;Max_cycle;Signal;HPM_P1;HPM_P2
2023/10/31 00:01:56;;;;;;;2.40;1.93;;;23.40;69.00;;;;;;5096553;28;20029;-36
2023/10/31 00:04:22;;;;;;;2.50;2.00;;;23.40;68.90;;;;;;5100000;28;20377;-34
2023/10/31 00:06:48;;;;;;;1.77;1.67;;;23.40;68.80;;;;;;5090199;28;20024;-35
2023/10/31 00:09:15;;;;;;;2.00;1.80;;;23.40;68.80;;;;;;5099687;28;20076;-34
2023/10/31 00:11:44;;;;;;;2.03;1.80;;;23.30;68.70;;;;;;5086048;28;20044;-34
2023/10/31 00:14:10;;;;;;;2.22;1.88;;;23.30;68.70;;;;;;5098365;28;20024;-34
2023/10/31 00:16:36;;;;;;;2.08;1.77;;;23.30;68.70;;;;;;5099729;28;20024;-34
2023/10/31 00:19:02;;;;;;;2.10;1.90;;;23.30;68.60;;;;;;5084092;28;20033;-35
2023/10/31 00:21:28;;;;;;;2.50;2.00;;;23.30;68.60;;;;;;5092582;28;20127;-34
2023/10/31 00:23:55;;;;;;;2.65;1.77;;;23.30;68.50;;;;;;5095913;28;20036;-34
2023/10/31 00:26:21;;;;;;;2.03;1.83;;;23.30;68.50;;;;;;5095422;28;20032;-34
2023/10/31 00:28:47;;;;;;;2.40;1.80;;;23.30;68.40;;;;;;5099175;28;20081;-34
2023/10/31 00:31:14;;;;;;;2.13;1.80;;;23.30;68.40;;;;;;5089916;28;20032;-34
2023/10/31 00:33:40;;;;;;;2.17;1.98;;;23.20;68.40;;;;;;5083170;28;20032;-34
2023/10/31 00:36:07;;;;;;;2.60;1.73;;;23.20;68.40;;;;;;5102952;28;20059;-34
2023/10/31 00:38:33;;;;;;;;;;;23.20;68.30;;;;;;5092178;28;20737;-34
2023/10/31 00:40:59;;;;;;;1.80;1.70;;;23.20;68.30;;;;;;5095660;28;19923;-34
2023/10/31 00:43:25;;;;;;;1.88;1.77;;;23.20;68.20;;;;;;5092473;28;20044;-34
2023/10/31 00:45:51;;;;;;;2.75;1.83;;;23.20;68.30;;;;;;5092951;28;20041;-34
2023/10/31 00:48:19;;;;;;;1.70;1.60;;;23.20;68.20;;;;;;5086417;28;20031;-34
2023/10/31 00:50:44;;;;;;;;;;;23.20;68.30;;;;;;5093999;28;20468;-35
2023/10/31 00:53:11;;;;;;;1.95;1.80;;;23.10;68.20;;;;;;5099102;28;20250;-39
2023/10/31 00:55:37;;;;;;;2.03;1.83;;;23.10;68.30;;;;;;5082989;28;20080;-35
2023/10/31 00:58:03;;;;;;;2.00;1.90;;;23.10;68.20;;;;;;5094459;28;20029;-35
2023/10/31 01:00:30;;;;;;;2.13;1.92;;;23.10;68.20;;;;;;5094395;28;20032;-35
2023/10/31 01:02:56;;;;;;;2.37;1.63;;;23.10;68.20;;;;;;5080181;28;20501;-35
2023/10/31 01:05:22;;;;;;;1.77;1.67;;;23.10;68.20;;;;;;5079300;28;20036;-34
2023/10/31 01:07:48;;;;;;;2.70;1.87;;;23.00;68.10;;;;;;5084926;28;20036;-35
2023/10/31 01:10:15;;;;;;;2.22;1.80;;;23.00;68.20;;;;;;5067425;28;20054;-34
2023/10/31 01:12:41;;;;;;;1.70;1.60;;;23.00;68.10;;;;;;5088646;28;20028;-34
2023/10/31 01:15:07;;;;;;;3.53;2.07;;;23.00;68.10;;;;;;5079253;28;20149;-34
2023/10/31 01:17:33;;;;;;;2.72;2.00;;;23.00;68.20;;;;;;5102737;28;20046;-34
2023/10/31 01:20:00;;;;;;;2.13;1.85;;;23.00;68.20;;;;;;5095126;28;20058;-34
2023/10/31 01:22:26;;;;;;;1.95;1.70;;;22.90;68.10;;;;;;5094385;28;20104;-34
2023/10/31 01:24:53;;;;;;;2.00;1.87;;;22.90;68.20;;;;;;5097222;28;20036;-36
2023/10/31 01:27:19;;;;;;;;;;;22.90;68.20;;;;;;5100937;28;20036;-34
2023/10/31 01:29:45;;;;;;;1.98;1.80;;;22.90;68.00;;;;;;5095396;28;19913;-34
2023/10/31 01:32:12;;;;;;;2.15;1.80;;;22.90;68.00;;;;;;5093909;28;20108;-34
2023/10/31 01:34:38;;;;;;;2.17;1.98;;;22.90;68.00;;;;;;5102327;28;20042;-35
2023/10/31 01:37:04;;;;;;;1.90;1.73;;;22.90;68.10;;;;;;5099044;28;20036;-35
2023/10/31 01:39:30;;;;;;;1.70;1.60;;;22.80;68.00;;;;;;5093404;28;20131;-35
2023/10/31 01:41:56;;;;;;;2.60;1.75;;;22.80;68.10;;;;;;5095794;28;20028;-34
2023/10/31 01:44:22;;;;;;;2.10;1.85;;;22.80;68.10;;;;;;5097978;28;20044;-34
2023/10/31 01:46:49;;;;;;;1.83;1.70;;;22.80;68.10;;;;;;5098356;28;20039;-34
2023/10/31 01:49:15;;;;;;;2.15;1.75;;;22.80;68.10;;;;;;5095263;28;20028;-34
2023/10/31 01:51:41;;;;;;;1.73;1.40;;;22.80;68.10;;;;;;5077559;28;20059;-34
2023/10/31 01:54:08;;;;;;;2.20;1.80;;;22.80;68.10;;;;;;5071326;28;20028;-34
2023/10/31 01:56:34;;;;;;;2.60;1.92;;;22.70;68.10;;;;;;5076335;28;20714;-35
2023/10/31 01:59:00;;;;;;;1.95;1.77;;;22.70;68.10;;;;;;5091724;28;20038;-35
2023/10/31 02:01:27;;;;;;;1.67;1.53;;;22.70;68.10;;;;;;5092024;28;20046;-35
2023/10/31 02:03:54;;;;;;;1.67;1.58;;;22.70;68.10;;;;;;5075489;28;20027;-35
2023/10/31 02:06:21;;;;;;;1.63;1.40;;;22.70;68.10;;;;;;5091106;28;20123;-34
2023/10/31 02:08:48;;;;;;;3.00;1.40;;;22.70;68.10;;;;;;5084393;28;20024;-35
2023/10/31 02:11:14;;;;;;;1.65;1.55;;;22.60;68.00;;;;;;5047125;28;20040;-35
2023/10/31 02:13:40;;;;;;;2.45;1.60;;;22.60;68.00;;;;;;5088486;28;20032;-35
2023/10/31 02:16:07;;;;;;;2.55;1.73;;;22.60;68.10;;;;;;5098177;28;20031;-35
2023/10/31 02:18:33;;;;;;;1.58;1.48;;;22.60;68.10;;;;;;5098894;28;20028;-34
2023/10/31 02:21:00;;;;;;;1.42;1.10;;;22.60;68.20;;;;;;5090586;28;20035;-34
2023/10/31 02:23:26;;;;;;;1.90;1.63;;;22.60;68.10;;;;;;5096257;28;20477;-34
2023/10/31 02:25:52;;;;;;;1.75;1.52;;;22.50;68.10;;;;;;5098022;28;20039;-35
2023/10/31 02:28:18;;;;;;;1.80;1.57;;;22.50;68.10;;;;;;5085797;28;20021;-34
2023/10/31 02:30:44;;;;;;;1.92;1.60;;;22.50;68.10;;;;;;5091749;28;20052;-34
2023/10/31 02:33:10;;;;;;;1.77;1.63;;;22.50;68.10;;;;;;5098056;28;20093;-34
2023/10/31 02:35:36;;;;;;;2.58;1.35;;;22.50;68.10;;;;;;5099847;28;20024;-34
2023/10/31 02:38:03;;;;;;;3.03;1.50;;;22.50;68.10;;;;;;5092167;28;20042;-34
2023/10/31 02:40:29;;;;;;;1.80;1.53;;;22.50;68.20;;;;;;5078491;28;20036;-34
2023/10/31 02:42:55;;;;;;;1.42;1.30;;;22.40;68.10;;;;;;5096022;28;20052;-35
2023/10/31 02:45:21;;;;;;;1.42;1.13;;;22.40;68.10;;;;;;5098732;28;20121;-34
2023/10/31 02:47:47;;;;;;;1.30;1.20;;;22.40;68.10;;;;;;5089267;28;20667;-35
2023/10/31 02:50:14;;;;;;;1.40;1.30;;;22.40;68.20;;;;;;5088239;28;20036;-35
2023/10/31 02:52:40;;;;;;;1.05;1.00;;;22.40;68.10;;;;;;5101665;28;20036;-35
2023/10/31 02:55:07;;;;;;;1.30;1.20;;;22.30;68.10;;;;;;5085226;28;21300;-35
2023/10/31 02:57:33;;;;;;;1.05;0.95;;;22.30;68.10;;;;;;5096084;28;20519;-35
2023/10/31 02:59:59;;;;;;;1.45;1.30;;;22.30;68.10;;;;;;5088567;28;20028;-35
2023/10/31 03:02:25;;;;;;;2.03;1.20;;;22.30;68.10;;;;;;5102675;28;20021;-34
2023/10/31 03:04:51;;;;;;;1.20;1.10;;;22.30;68.10;;;;;;5099461;28;20046;-35
2023/10/31 03:07:17;;;;;;;1.20;1.10;;;22.20;68.20;;;;;;5089879;28;20036;-35
2023/10/31 03:09:43;;;;;;;1.50;1.10;;;22.20;68.90;;;;;;5100153;28;20393;-35
2023/10/31 03:12:10;;;;;;;1.10;1.00;;;22.20;68.20;;;;;;5101087;28;20039;-35
2023/10/31 03:14:36;;;;;;;1.17;1.08;;;22.20;68.20;;;;;;5096526;28;20040;-34
2023/10/31 03:17:02;;;;;;;1.20;1.00;;;22.20;69.00;;;;;;5104417;28;20020;-35
2023/10/31 03:19:28;;;;;;;1.33;1.00;;;22.20;68.30;;;;;;5104243;28;20497;-35
2023/10/31 03:21:54;;;;;;;1.00;0.90;;;22.20;68.30;;;;;;5094402;28;20028;-35
2023/10/31 03:24:20;;;;;;;2.00;1.10;;;22.10;68.20;;;;;;5103642;28;20029;-35
2023/10/31 03:26:47;;;;;;;0.82;0.75;;;22.10;68.10;;;;;;5092101;28;20047;-35
2023/10/31 03:29:13;;;;;;;1.00;0.82;;;22.10;68.10;;;;;;5101338;28;20035;-34
2023/10/31 03:31:39;;;;;;;1.15;0.90;;;22.10;68.20;;;;;;5096785;28;20024;-34
2023/10/31 03:34:05;;;;;;;0.80;0.80;;;22.00;68.20;;;;;;5104886;28;20058;-34
2023/10/31 03:36:31;;;;;;;1.20;0.98;;;22.00;68.20;;;;;;5095949;28;20077;-35
2023/10/31 03:38:57;;;;;;;0.83;0.83;;;22.00;68.20;;;;;;5102148;28;20050;-35
2023/10/31 03:41:23;;;;;;;0.80;0.77;;;22.00;68.30;;;;;;5102890;28;20024;-35
2023/10/31 03:43:50;;;;;;;0.90;0.77;;;22.00;68.20;;;;;;5103953;28;20048;-34
2023/10/31 03:46:16;;;;;;;1.00;0.90;;;22.00;68.30;;;;;;5102642;28;20110;-34
2023/10/31 03:48:42;;;;;;;1.33;1.00;;;21.90;68.20;;;;;;5104148;28;20022;-34
2023/10/31 03:51:08;;;;;;;1.17;0.87;;;21.90;68.20;;;;;;5103153;28;20026;-34
2023/10/31 03:53:34;;;;;;;1.02;0.82;;;21.90;68.30;;;;;;5100898;28;20342;-34
2023/10/31 03:56:00;;;;;;;0.73;0.57;;;21.90;68.30;;;;;;5093883;28;20024;-34
2023/10/31 03:58:27;;;;;;;1.17;0.70;;;21.80;68.20;;;;;;5100428;28;20508;-34
2023/10/31 04:00:53;;;;;;;0.63;0.63;;;21.80;68.20;;;;;;5098493;28;20100;-34
2023/10/31 04:03:19;;;;;;;0.70;0.60;;;21.80;68.20;;;;;;5102711;28;20243;-34
2023/10/31 04:05:45;;;;;;;0.70;0.60;;;21.80;68.20;;;;;;5096589;28;20035;-34
2023/10/31 04:08:11;;;;;;;0.65;0.55;;;21.80;68.40;;;;;;5096838;28;20028;-34
2023/10/31 04:10:37;;;;;;;0.75;0.70;;;21.80;68.20;;;;;;5092510;28;20438;-34
2023/10/31 04:13:03;;;;;;;0.60;0.60;;;21.80;68.20;;;;;;5081471;28;20190;-34
2023/10/31 04:15:30;;;;;;;0.70;0.70;;;21.70;68.20;;;;;;5086310;28;20079;-35
2023/10/31 04:17:56;;;;;;;0.70;0.60;;;21.70;68.20;;;;;;5101162;28;20035;-34
2023/10/31 04:20:22;;;;;;;1.00;0.70;;;21.70;68.30;;;;;;5091130;28;20036;-34
2023/10/31 04:22:48;;;;;;;0.50;0.47;;;21.70;68.20;;;;;;5099768;28;20039;-34
2023/10/31 04:25:14;;;;;;;0.55;0.40;;;21.60;68.10;;;;;;5083615;28;20040;-34
2023/10/31 04:27:41;;;;;;;0.93;0.50;;;21.60;68.20;;;;;;5083055;28;20071;-34
2023/10/31 04:30:07;;;;;;;0.77;0.50;;;21.60;68.10;;;;;;5101269;28;20057;-34
2023/10/31 04:32:33;;;;;;;0.75;0.60;;;21.60;68.20;;;;;;5102458;28;20047;-34
2023/10/31 04:35:00;;;;;;;0.70;0.63;;;21.60;68.20;;;;;;5089180;28;20036;-33
2023/10/31 04:37:26;;;;;;;0.70;0.57;;;21.50;68.20;;;;;;5094138;28;20024;-34
2023/10/31 04:39:52;;;;;;;0.60;0.50;;;21.50;68.20;;;;;;5098084;28;20091;-34
2023/10/31 04:42:20;;;;;;;0.70;0.50;;;21.50;68.20;;;;;;5103122;28;20344;-35
2023/10/31 04:44:46;;;;;;;0.50;0.50;;;21.50;68.20;;;;;;5091526;28;20074;-34
2023/10/31 04:47:12;;;;;;;0.67;0.50;;;21.50;68.30;;;;;;5086284;28;20131;-33
2023/10/31 04:49:38;;;;;;;0.60;0.47;;;21.50;68.20;;;;;;5100821;28;20308;-34
2023/10/31 04:52:05;;;;;;;0.40;0.40;;;21.40;68.20;;;;;;5102063;28;20435;-34
2023/10/31 04:54:31;;;;;;;0.50;0.50;;;21.50;68.20;;;;;;5085995;28;20031;-34
2023/10/31 04:56:57;;;;;;;0.47;0.47;;;21.40;68.20;;;;;;5094130;28;20028;-34
2023/10/31 04:59:23;;;;;;;0.68;0.57;;;21.40;68.20;;;;;;5079526;28;20039;-34
2023/10/31 05:01:52;;;;;;;0.60;0.57;;;21.40;68.40;;;;;;5102448;28;20032;-34
2023/10/31 05:04:19;;;;;;;0.90;0.50;;;21.40;68.30;;;;;;5093113;28;20047;-33
2023/10/31 05:06:45;;;;;;;0.63;0.38;;;21.30;68.20;;;;;;5084200;28;20027;-34
2023/10/31 05:09:11;;;;;;;0.80;0.40;;;21.30;68.20;;;;;;5071455;28;20029;-34
2023/10/31 05:11:37;;;;;;;0.45;0.45;;;21.30;68.30;;;;;;5095060;28;20370;-34
2023/10/31 05:14:03;;;;;;;0.40;0.40;;;21.30;68.20;;;;;;5075505;28;20028;-34
2023/10/31 05:16:29;;;;;;;0.40;0.40;;;21.30;68.30;;;;;;5094606;28;20041;-35
2023/10/31 05:18:59;;;;;;;0.40;0.40;;;21.30;68.20;;;;;;5101579;28;20020;-38
2023/10/31 05:21:25;;;;;;;0.80;0.40;;;21.20;68.10;;;;;;5101778;28;20043;-35
2023/10/31 05:23:51;;;;;;;0.57;0.40;;;21.20;68.10;;;;;;5094727;28;20031;-34
2023/10/31 05:26:17;;;;;;;0.40;0.40;;;21.20;68.20;;;;;;5095544;28;20083;-34
2023/10/31 05:28:43;;;;;;;0.38;0.38;;;21.20;68.20;;;;;;5094365;28;20051;-34
2023/10/31 05:31:10;;;;;;;0.40;0.40;;;21.20;68.20;;;;;;5095581;28;20040;-34
2023/10/31 05:33:36;;;;;;;0.37;0.37;;;21.10;68.20;;;;;;5094037;28;20028;-34
2023/10/31 05:36:02;;;;;;;1.02;0.50;;;21.20;68.30;;;;;;5088383;28;20088;-35
2023/10/31 05:38:28;;;;;;;0.70;0.40;;;21.10;68.20;;;;;;5091085;28;20025;-35
2023/10/31 05:40:54;;;;;;;1.15;0.55;;;21.10;68.20;;;;;;5096651;28;20020;-35
2023/10/31 05:43:20;;;;;;;0.40;0.40;;;21.10;68.20;;;;;;5081046;28;20068;-34
2023/10/31 05:45:47;;;;;;;0.57;0.30;;;21.10;68.30;;;;;;5075971;28;20041;-34
2023/10/31 05:48:14;;;;;;;0.47;0.30;;;21.10;68.20;;;;;;5069072;28;20051;-34
2023/10/31 05:50:42;;;;;;;1.17;0.45;;;21.00;68.20;;;;;;5065405;28;20076;-34
2023/10/31 05:53:08;;;;;;;0.60;0.30;;;21.00;68.30;;;;;;5069940;28;20083;-35
2023/10/31 05:55:35;;;;;;;0.50;0.40;;;21.00;68.30;;;;;;5076621;28;20024;-35
2023/10/31 05:58:01;;;;;;;0.52;0.50;;;21.00;68.30;;;;;;5054333;28;20024;-35
2023/10/31 06:00:27;;;;;;;0.60;0.40;;;21.00;68.30;;;;;;5074014;28;20029;-34
2023/10/31 06:02:53;;;;;;;0.90;0.50;;;21.00;68.30;;;;;;5073785;28;20020;-34
2023/10/31 06:05:19;;;;;;;1.00;0.50;;;20.90;68.30;;;;;;5072793;28;20041;-34
2023/10/31 06:07:46;;;;;;;0.43;0.30;;;20.90;68.30;;;;;;5064734;28;20025;-34
2023/10/31 06:10:12;;;;;;;3.10;0.40;;;20.90;68.20;;;;;;5079435;28;20024;-34
2023/10/31 06:12:39;;;;;;;0.28;0.28;;;20.90;68.30;;;;;;5071510;28;20032;-34
2023/10/31 06:15:05;;;;;;;0.30;0.30;;;20.90;68.30;;;;;;5078320;28;20059;-34
2023/10/31 06:17:33;;;;;;;0.40;0.30;;;20.90;68.40;;;;;;5079325;28;20110;-34
2023/10/31 06:19:59;;;;;;;0.30;0.30;;;20.90;68.30;;;;;;5078297;28;20211;-34
2023/10/31 06:22:26;;;;;;;0.40;0.30;;;20.80;68.20;;;;;;5053680;28;20206;-34
2023/10/31 06:24:52;;;;;;;0.43;0.40;;;20.80;68.20;;;;;;5075303;28;20032;-34
2023/10/31 06:27:18;;;;;;;0.80;0.40;;;20.80;68.20;;;;;;5073334;28;20029;-34
2023/10/31 06:29:44;;;;;;;0.35;0.30;;;20.80;68.30;;;;;;5077283;28;20029;-34
2023/10/31 06:32:10;;;;;;;0.80;0.30;;;20.80;68.30;;;;;;5074547;28;20025;-36
2023/10/31 06:34:36;;;;;;;0.38;0.30;;;20.80;68.30;;;;;;5075206;28;20135;-34
2023/10/31 06:37:03;;;;;;;0.22;0.20;;;20.70;68.20;;;;;;5075374;28;20027;-34
2023/10/31 06:39:29;;;;;;;1.80;0.40;;;20.70;68.30;;;;;;5071899;28;20104;-34
2023/10/31 06:41:55;;;;;;;0.40;0.30;;;20.70;68.30;;;;;;5075626;28;20021;-34
2023/10/31 06:44:22;;;;;;;1.27;0.30;;;20.70;68.30;;;;;;5075200;28;20128;-34
2023/10/31 06:46:48;;;;;;;0.20;0.20;;;20.70;68.40;;;;;;5068661;28;20036;-34
2023/10/31 06:49:14;;;;;;;0.35;0.20;;;20.70;68.10;;;;;;5063291;28;20089;-34
2023/10/31 06:51:40;;;;;;;0.30;0.30;;;20.60;68.30;;;;;;5072641;28;20401;-34
2023/10/31 06:54:06;;;;;;;0.30;0.30;;;20.60;68.30;;;;;;5060501;28;20033;-34
2023/10/31 06:56:33;;;;;;;0.80;0.20;;;20.60;68.40;;;;;;5065656;28;20088;-34
2023/10/31 06:58:59;;;;;;;0.22;0.22;;;20.60;68.30;;;;;;5071419;28;20037;-34
2023/10/31 07:01:25;;;;;;;0.85;0.30;;;20.60;68.40;;;;;;5064424;28;20036;-35
2023/10/31 07:03:51;;;;;;;0.33;0.30;;;20.60;68.40;;;;;;5082426;28;20032;-34
2023/10/31 07:06:17;;;;;;;0.50;0.30;;;20.60;68.30;;;;;;5079677;28;20075;-34
2023/10/31 07:08:44;;;;;;;1.08;0.20;;;20.60;68.40;;;;;;5069973;28;20025;-34
2023/10/31 07:11:10;;;;;;;0.38;0.20;;;20.50;68.30;;;;;;5071494;28;20033;-33
2023/10/31 07:13:36;;;;;;;0.20;0.20;;;20.50;68.30;;;;;;5044626;28;20386;-33
2023/10/31 07:16:03;;;;;;;0.30;0.30;;;20.50;68.30;;;;;;5069532;28;20115;-35
2023/10/31 07:18:29;;;;;;;0.85;0.32;;;20.50;68.40;;;;;;5080684;28;20048;-34
2023/10/31 07:20:56;;;;;;;0.40;0.22;;;20.50;68.40;;;;;;5068812;28;20038;-34
2023/10/31 07:23:22;;;;;;;0.30;0.20;;;20.40;68.40;;;;;;5074757;28;20064;-34
2023/10/31 07:25:48;;;;;;;0.17;0.17;;;20.40;68.30;;;;;;5078907;28;20294;-34
2023/10/31 07:28:14;;;;;;;0.35;0.30;;;20.40;68.40;;;;;;5067633;28;20033;-34
2023/10/31 07:30:40;;;;;;;0.60;0.30;;;20.40;68.40;;;;;;5070213;28;20033;-34
2023/10/31 07:33:07;;;;;;;0.35;0.28;;;20.40;68.40;;;;;;5070264;28;20050;-37
2023/10/31 07:35:33;;;;;;;0.55;0.22;;;20.40;68.40;;;;;;5075678;28;20087;-35
2023/10/31 07:37:59;;;;;;;0.40;0.20;;;20.40;68.40;;;;;;5070161;28;20040;-34
2023/10/31 07:40:25;;;;;;;0.20;0.20;;;20.30;68.40;;;;;;5074307;28;20043;-35
2023/10/31 07:42:51;;;;;;;0.30;0.20;;;20.30;68.40;;;;;;5065715;28;20048;-34
2023/10/31 07:45:17;;;;;;;0.70;0.30;;;20.30;68.30;;;;;;5065639;28;20049;-34
2023/10/31 07:47:44;;;;;;;0.30;0.30;;;20.30;68.40;;;;;;5073269;28;20032;-34
2023/10/31 07:50:10;;;;;;;0.25;0.20;;;20.30;68.40;;;;;;5073531;28;20036;-34
2023/10/31 07:52:36;;;;;;;0.40;0.20;;;20.20;68.40;;;;;;5076080;28;20033;-34
2023/10/31 07:55:02;;;;;;;0.30;0.28;;;20.20;68.40;;;;;;5080301;28;20610;-34
2023/10/31 07:57:28;;;;;;;0.75;0.30;;;20.20;68.40;;;;;;5081794;28;20025;-34
2023/10/31 07:59:54;;;;;;;0.40;0.30;;;20.20;68.40;;;;;;5083136;28;20055;-34
2023/10/31 08:02:21;;;;;;;1.42;0.30;;;20.20;68.40;;;;;;5075392;28;20029;-34
2023/10/31 08:04:47;;;;;;;0.20;0.20;;;20.20;68.30;;;;;;5081852;28;20440;-35
2023/10/31 08:07:13;;;;;;;0.40;0.20;;;20.20;68.40;;;;;;5082075;28;20021;-35
2023/10/31 08:09:39;;;;;;;0.28;0.28;;;20.20;68.40;;;;;;5072368;28;20092;-35
2023/10/31 08:12:05;;;;;;;0.20;0.20;;;20.10;68.40;;;;;;5065623;28;20029;-34
2023/10/31 08:14:31;;;;;;;0.33;0.30;;;20.10;68.40;;;;;;5068720;28;20033;-33
2023/10/31 08:16:58;;;;;;;0.22;0.22;;;20.10;68.40;;;;;;5081636;28;20281;-34
2023/10/31 08:19:24;;;;;;;1.20;0.28;;;20.10;68.40;;;;;;5073059;28;20135;-34
2023/10/31 08:21:50;;;;;;;0.30;0.22;;;20.10;68.40;;;;;;5081603;28;20033;-34
2023/10/31 08:24:16;;;;;;;0.30;0.30;;;20.10;68.40;;;;;;5073748;28;20041;-33
2023/10/31 08:26:42;;;;;;;0.28;0.20;;;20.00;68.40;;;;;;5083355;28;20030;-34
2023/10/31 08:29:08;;;;;;;0.65;0.30;;;20.00;68.30;;;;;;5081787;28;20032;-34
2023/10/31 08:31:34;;;;;;;0.30;0.30;;;20.00;68.40;;;;;;5075886;28;20096;-34
2023/10/31 08:34:01;;;;;;;0.38;0.38;;;20.00;68.40;;;;;;5076237;28;20029;-33
2023/10/31 08:36:27;;;;;;;0.30;0.30;;;20.00;68.40;;;;;;5079526;28;20021;-34
2023/10/31 08:38:53;;;;;;;1.02;0.30;;;20.00;68.40;;;;;;5074179;28;20035;-34
2023/10/31 08:41:20;;;;;;;0.40;0.35;;;20.00;68.30;;;;;;5067504;28;20081;-34
2023/10/31 08:43:49;;;;;;;0.30;0.30;;;19.90;68.40;;;;;;5081194;28;20056;-33
2023/10/31 08:46:15;;;;;;;0.40;0.40;;;19.90;68.40;;;;;;5088354;28;20070;-33
2023/10/31 08:48:41;;;;;;;0.50;0.30;;;19.90;68.40;;;;;;5094879;28;20058;-34
2023/10/31 08:51:07;;;;;;;0.40;0.25;;;19.90;68.40;;;;;;5103029;28;20035;-34
2023/10/31 08:53:33;;;;;;;0.40;0.30;;;19.90;68.40;;;;;;5101169;28;20024;-34
2023/10/31 08:55:59;;;;;;;0.47;0.40;;;19.90;68.40;;;;;;5096124;28;20020;-34
2023/10/31 08:58:28;;;;;;;0.60;0.30;;;19.90;68.50;;;;;;5092298;28;20059;-34
2023/10/31 09:00:54;;;;;;;0.40;0.30;;;19.80;68.30;;;;;;5102312;28;20048;-34
2023/10/31 09:03:20;;;;;;;0.60;0.40;;;19.80;69.10;;;;;;5094176;28;20032;-34
2023/10/31 09:05:46;;;;;;;0.50;0.30;;;19.80;68.40;;;;;;5101805;28;20032;-34
2023/10/31 09:08:12;;;;;;;0.50;0.40;;;19.80;68.40;;;;;;5094076;28;20040;-34
2023/10/31 09:10:39;;;;;;;0.57;0.40;;;19.80;68.40;;;;;;5091950;28;20024;-33
2023/10/31 09:13:05;;;;;;;0.82;0.40;;;19.80;68.40;;;;;;5095122;28;20024;-33
2023/10/31 09:15:31;;;;;;;0.43;0.28;;;19.80;68.50;;;;;;5102218;28;20037;-34
2023/10/31 09:17:58;;;;;;;0.73;0.40;;;19.70;68.40;;;;;;5102004;28;20106;-34
2023/10/31 09:20:24;;;;;;;0.73;0.40;;;19.70;68.40;;;;;;5093283;28;20043;-34
2023/10/31 09:22:50;;;;;;;1.10;0.50;;;19.70;68.40;;;;;;5091587;28;20033;-33
2023/10/31 09:25:16;;;;;;;0.57;0.50;;;19.70;68.40;;;;;;5092168;28;20043;-34
2023/10/31 09:27:42;;;;;;;1.45;0.38;;;19.70;68.40;;;;;;5102760;28;20024;-34
2023/10/31 09:30:08;;;;;;;0.63;0.55;;;19.70;68.40;;;;;;5101447;28;20028;-34
2023/10/31 09:32:35;;;;;;;0.75;0.60;;;19.70;68.50;;;;;;5100782;28;20025;-35
2023/10/31 09:35:01;;;;;;;0.70;0.43;;;19.70;69.20;;;;;;5101669;28;20024;-34
2023/10/31 09:37:27;;;;;;;1.05;0.50;;;19.70;68.50;;;;;;5099776;28;20032;-34
2023/10/31 09:39:53;;;;;;;0.88;0.43;;;19.60;68.50;;;;;;5087638;28;20035;-33
2023/10/31 09:42:19;;;;;;;1.38;0.60;;;19.60;68.50;;;;;;5087953;28;20033;-34
2023/10/31 09:44:45;;;;;;;0.90;0.47;;;19.60;68.50;;;;;;5097598;28;20048;-34
2023/10/31 09:47:11;;;;;;;0.43;0.40;;;19.60;68.50;;;;;;5091911;28;20054;-34
2023/10/31 09:49:37;;;;;;;0.60;0.40;;;19.60;68.50;;;;;;5094752;28;20024;-34
2023/10/31 09:52:06;;;;;;;0.57;0.50;;;19.60;68.50;;;;;;5106389;28;20030;-34
2023/10/31 09:54:32;;;;;;;0.50;0.47;;;19.50;68.40;;;;;;5102038;28;20545;-34
2023/10/31 09:56:59;;;;;;;1.10;0.45;;;19.50;68.40;;;;;;5093597;28;20195;-34
2023/10/31 09:59:25;;;;;;;0.63;0.50;;;19.50;68.40;;;;;;5097408;28;20769;-34
2023/10/31 10:01:51;;;;;;;0.77;0.55;;;19.50;68.40;;;;;;5089381;28;20062;-34
2023/10/31 10:04:18;;;;;;;0.40;0.40;;;19.50;68.50;;;;;;5100066;28;20059;-34
2023/10/31 10:07:00;;;;;;;0.57;0.40;;;19.50;68.50;;;;;;5084279;28;20099;-34
2023/10/31 10:09:27;;;;;;;0.50;0.40;;;19.50;68.50;;;;;;5093277;28;20349;-34
2023/10/31 10:11:54;;;;;;;0.60;0.60;;;19.50;68.50;;;;;;5100616;28;20032;-34
2023/10/31 10:14:22;;;;;;;;;;;19.50;68.50;;;;;;5086231;28;20044;-34
2023/10/31 10:16:48;;;;;;;0.50;0.50;;;19.40;68.50;;;;;;5090884;28;19920;-34
2023/10/31 10:19:19;;;;;;;0.45;0.43;;;19.50;68.60;;;;;;5097905;28;20094;-34
2023/10/31 10:21:58;;;;;;;0.50;0.45;;;19.40;68.50;;;;;;5102503;28;20020;-34
2023/10/31 10:24:24;;;;;;;0.43;0.40;;;19.40;68.50;;;;;;5099141;28;20032;-34
2023/10/31 10:26:51;;;;;;;2.58;0.47;;;19.40;68.50;;;;;;5089471;28;20027;-34
2023/10/31 10:29:17;;;;;;;0.30;0.30;;;19.40;68.50;;;;;;5095180;28;20047;-34
2023/10/31 10:31:44;;;;;;;0.45;0.43;;;19.40;68.50;;;;;;5094835;28;20032;-34
2023/10/31 10:34:13;;;;;;;0.50;0.50;;;19.40;68.60;;;;;;5093529;28;20044;-34
2023/10/31 10:36:39;;;;;;;0.57;0.40;;;19.40;68.60;;;;;;5094525;28;20719;-34
2023/10/31 10:39:06;;;;;;;0.70;0.40;;;19.40;68.60;;;;;;5093901;28;20032;-34
2023/10/31 10:41:33;;;;;;;0.37;0.30;;;19.40;68.60;;;;;;5093909;28;20035;-33
2023/10/31 10:44:06;;;;;;;;;;;19.30;68.50;;;;;;5085837;28;20068;-33
2023/10/31 10:46:34;;;;;;;0.57;0.40;;;19.30;68.50;;;;;;5094024;28;19916;-33
2023/10/31 10:49:20;;;;;;;0.90;0.40;;;19.30;68.50;;;;;;5100508;28;20035;-35
2023/10/31 10:51:56;;;;;;;2.05;0.50;;;19.30;68.50;;;;;;5061902;28;20040;-35
2023/10/31 10:54:30;;;;;;;0.40;0.40;;;19.20;68.50;;;;;;5058765;28;20036;-34
2023/10/31 10:57:05;;;;;;;0.63;0.40;;;19.30;68.60;;;;;;5043128;28;20045;-34
2023/10/31 10:59:43;;;;;;;0.43;0.32;;;19.20;68.50;;;;;;5058563;28;20025;-34
2023/10/31 11:02:14;;;;;;;0.82;0.45;;;19.20;68.60;;;;;;5058218;28;20434;-34
2023/10/31 11:04:40;;;;;;;0.43;0.30;;;19.20;69.10;;;;;;5039296;28;20050;-34
2023/10/31 11:07:07;;;;;;;0.30;0.30;;;19.20;68.60;;;;;;5036668;28;20021;-34
2023/10/31 11:09:33;;;;;;;0.90;0.40;;;19.20;68.60;;;;;;5059693;28;20029;-34
2023/10/31 11:11:59;;;;;;;0.50;0.50;;;19.20;68.50;;;;;;5041889;28;20022;-34
2023/10/31 11:14:26;;;;;;;0.45;0.35;;;19.20;68.60;;;;;;5062646;28;20060;-34
2023/10/31 11:16:53;;;;;;;0.98;0.47;;;19.20;68.60;;;;;;5046952;28;20037;-34
2023/10/31 11:19:19;;;;;;;;;;;19.20;68.60;;;;;;5062219;28;20063;-34
2023/10/31 11:21:55;;;;;;;0.70;0.55;;;19.10;68.60;;;;;;5066098;28;19912;-35
2023/10/31 11:24:25;;;;;;;0.38;0.30;;;19.10;68.60;;;;;;5063770;28;20037;-34
2023/10/31 11:26:52;;;;;;;0.40;0.40;;;19.10;68.70;;;;;;5062857;28;20782;-34
2023/10/31 11:29:18;;;;;;;0.73;0.30;;;19.10;68.70;;;;;;5086578;28;20040;-34
2023/10/31 11:31:44;;;;;;;0.30;0.30;;;19.10;68.60;;;;;;5094543;28;20036;-34
2023/10/31 11:34:10;;;;;;;0.40;0.30;;;19.10;68.70;;;;;;5093430;28;20133;-34
2023/10/31 11:36:36;;;;;;;0.40;0.40;;;19.10;68.70;;;;;;5094310;28;20036;-34
2023/10/31 11:39:16;;;;;;;0.30;0.28;;;19.00;68.60;;;;;;5086547;28;20048;-34
2023/10/31 11:41:54;;;;;;;0.85;0.40;;;19.00;68.60;;;;;;5094033;28;20025;-34
2023/10/31 11:44:27;;;;;;;0.50;0.40;;;19.00;68.60;;;;;;5099316;28;20048;-34
2023/10/31 11:46:53;;;;;;;0.68;0.30;;;19.00;68.60;;;;;;5086671;28;20029;-34
2023/10/31 11:49:49;;;;;;;0.40;0.30;;;19.00;68.70;;;;;;5100617;28;20048;-34
2023/10/31 11:52:18;;;;;;;0.55;0.40;;;19.00;68.60;;;;;;5101909;28;20041;-34
2023/10/31 11:54:44;;;;;;;0.35;0.35;;;19.00;68.70;;;;;;5102065;28;20035;-34
2023/10/31 11:57:10;;;;;;;0.70;0.45;;;19.00;68.80;;;;;;5096316;28;20044;-34
2023/10/31 11:59:40;;;;;;;0.68;0.40;;;19.00;68.60;;;;;;5096795;28;20027;-34
2023/10/31 12:02:16;;;;;;;0.30;0.30;;;18.90;68.60;;;;;;5089473;28;20024;-35
2023/10/31 12:04:42;;;;;;;0.30;0.30;;;18.90;68.60;;;;;;5092081;28;20036;-34
2023/10/31 12:07:09;;;;;;;0.40;0.40;;;18.90;68.60;;;;;;5085823;28;20051;-34
2023/10/31 12:09:47;;;;;;;0.43;0.40;;;18.90;68.70;;;;;;5085815;28;20051;-34
2023/10/31 12:12:14;;;;;;;0.30;0.30;;;18.90;68.60;;;;;;5085096;28;20033;-34
2023/10/31 12:14:40;;;;;;;1.23;0.43;;;18.90;68.70;;;;;;5085948;28;20033;-34
2023/10/31 12:17:07;;;;;;;0.43;0.40;;;18.90;68.70;;;;;;5090506;28;20034;-34
2023/10/31 12:19:33;;;;;;;0.43;0.30;;;18.80;68.70;;;;;;5096037;28;20073;-34
2023/10/31 12:22:00;;;;;;;0.50;0.40;;;18.90;68.70;;;;;;5098638;28;20054;-33
2023/10/31 12:24:26;;;;;;;0.45;0.32;;;18.80;68.70;;;;;;5095482;28;20028;-34
2023/10/31 12:26:52;;;;;;;0.40;0.40;;;18.80;68.70;;;;;;5094739;28;20476;-34
2023/10/31 12:29:20;;;;;;;1.02;0.50;;;18.80;68.70;;;;;;5099916;28;20024;-34
2023/10/31 12:31:48;;;;;;;0.32;0.32;;;18.80;68.70;;;;;;5096992;28;20028;-34
2023/10/31 12:34:15;;;;;;;1.27;0.30;;;18.80;68.70;;;;;;5093843;28;20032;-35
2023/10/31 12:36:41;;;;;;;0.35;0.35;;;18.80;68.70;;;;;;5093028;28;20059;-34
2023/10/31 12:39:09;;;;;;;0.70;0.40;;;18.80;68.70;;;;;;5077641;28;20039;-34
2023/10/31 12:41:36;;;;;;;0.40;0.40;;;18.70;68.60;;;;;;5084048;28;20037;-34
2023/10/31 12:44:04;;;;;;;0.40;0.40;;;18.70;68.70;;;;;;5084519;28;20040;-34
2023/10/31 12:46:31;;;;;;;0.40;0.40;;;18.70;68.70;;;;;;5090679;28;20085;-34